Terminal Aerodrome Forecast
Issued by NWS Topeka, KS

Home | Current Version | Previous Version | Graphics & Text | Print | Product List | Glossary On
Versions: 1 2 3 4 5 6 7 8 9 10 11 12 13 14 15 16 17 18 19 20 21 22 23
000
FTUS43 KTOP 170200 AAA
TAFTOP
TAF AMD
KTOP 170236Z 1703/1724 34003KT P6SM BKN020
     FM170500 35005KT P6SM SCT020 SCT200
     FM171500 08004KT P6SM BKN150=

USA.gov is the U.S. government's official web portal to all federal, state and local government web resources and services.